Аэропорт: Полярный. Удачный

ICAO: UERP

METAR:
2020-08-09 22:00:00
UERP 092200Z 32003MPS 0300 R35/0350 FG VV001 08/08 Q1009 NOSIG RMK QBB020 QFE713
METAR:
2020-08-09 20:00:00
TAF UERP 092000Z 0921/1021 VRB01MPS 9999 BKN030CB OVC100 TEMPO 0921/1003 4000 BR SCT004 BKN017CB OVC100